Mesita, Colorado
Current Conditions -  °F | °C
As of 8:52 PM on Wednesday 22 Oct 2014 (Local Time) from KALS Reporting Station
Clear Clear  
Wind Chill:   Ceiling: Unl
Heat Index:   Visibility: 10mi
Dew Point:   Wind: 6mph
Humidity: 65%   Direction: 310°NW
Pressure: 30.26"   Gusts: NA
Location:  37.0838°N, 105.58°W
Report Text: KALS 230252Z AUTO 31005KT 10SM CLR 07/01 A3026 RMK AO2 SLP212 T00720011 53018
Loading
Personal Weather Stations






























Interactive Weather Map
Tropical Storm Tracking
New forecast layout! Learn more

10-Day Weather Forecast

Advertisements
Track Severe Weather on mobile